createdAt,value
2018-07-02T00:00:16.647Z,1011.16
2018-07-02T00:01:26.414Z,1011.15
2018-07-02T00:02:36.486Z,1011.2
2018-07-02T00:03:46.014Z,1011.14
2018-07-02T00:04:55.566Z,1011.16
2018-07-02T00:06:05.643Z,1011.15
2018-07-02T00:07:14.849Z,1011.16
2018-07-02T00:08:24.083Z,1011.12
2018-07-02T00:09:33.590Z,1011.1
2018-07-02T00:10:42.797Z,1011.12
2018-07-02T00:11:52.335Z,1011.09
2018-07-02T00:13:02.139Z,1011.08
2018-07-02T00:14:11.921Z,1011.07
2018-07-02T00:15:21.336Z,1011.08
2018-07-02T00:16:31.034Z,1011.03
2018-07-02T00:17:40.560Z,1011.03
2018-07-02T00:18:50.105Z,1011.03
2018-07-02T00:19:59.034Z,1011.03
2018-07-02T00:21:07.955Z,1011.07
2018-07-02T00:22:17.421Z,1011.09
2018-07-02T00:23:26.957Z,1011.11
2018-07-02T00:24:35.883Z,1011.1
2018-07-02T00:25:45.431Z,1011.08
2018-07-02T00:26:55.751Z,1011.07
2018-07-02T00:28:05.236Z,1011.06
2018-07-02T00:29:15.017Z,1011.07
2018-07-02T00:30:23.959Z,1011.08
2018-07-02T00:31:33.236Z,1011.07
2018-07-02T00:32:42.862Z,1011.09
2018-07-02T00:33:53.892Z,1011.1
2018-07-02T00:35:03.772Z,1011.1
2018-07-02T00:36:13.007Z,1011.13
2018-07-02T00:37:22.236Z,1011.05
2018-07-02T00:38:31.722Z,1011.05
2018-07-02T00:39:41.630Z,1011.08
2018-07-02T00:40:51.116Z,1011.05
2018-07-02T00:42:00.885Z,1011.02
2018-07-02T00:43:10.421Z,1010.99
2018-07-02T00:44:21.574Z,1010.98
2018-07-02T00:45:31.040Z,1010.99
2018-07-02T00:46:40.320Z,1010.95
2018-07-02T00:47:50.090Z,1011
2018-07-02T00:48:59.574Z,1010.98
2018-07-02T00:50:09.323Z,1010.99
2018-07-02T00:51:19.094Z,1010.97
2018-07-02T00:52:28.914Z,1010.92
2018-07-02T00:53:37.827Z,1010.95
2018-07-02T00:54:47.022Z,1010.94
2018-07-02T00:55:57.348Z,1010.95
2018-07-02T00:57:07.187Z,1010.99
2018-07-02T00:58:16.406Z,1010.95
2018-07-02T00:59:25.359Z,1010.97
2018-07-02T01:00:34.564Z,1011.01
2018-07-02T01:01:44.089Z,1011.02
2018-07-02T01:02:55.404Z,1011.06
2018-07-02T01:04:05.684Z,1011.04
2018-07-02T01:05:15.153Z,1010.99
2018-07-02T01:06:24.365Z,1010.96
2018-07-02T01:07:33.881Z,1010.98
2018-07-02T01:08:43.381Z,1010.99
2018-07-02T01:09:55.010Z,1010.94
2018-07-02T01:11:03.650Z,1010.94
2018-07-02T01:12:12.566Z,1010.92
2018-07-02T01:13:21.790Z,1010.93
2018-07-02T01:14:31.583Z,1010.92
2018-07-02T01:15:42.715Z,1010.88
2018-07-02T01:16:51.984Z,1010.9
2018-07-02T01:18:01.494Z,1010.91
2018-07-02T01:19:10.449Z,1010.92
2018-07-02T01:20:21.240Z,1010.94
2018-07-02T01:21:30.957Z,1010.98
2018-07-02T01:22:40.437Z,1010.94
2018-07-02T01:23:49.660Z,1010.96
2018-07-02T01:24:59.146Z,1011
2018-07-02T01:26:08.081Z,1011.01
2018-07-02T01:27:18.348Z,1010.97
2018-07-02T01:28:27.837Z,1010.97
2018-07-02T01:29:37.355Z,1010.96
2018-07-02T01:30:46.880Z,1010.96
2018-07-02T01:31:57.771Z,1010.92
2018-07-02T01:33:07.561Z,1010.89
2018-07-02T01:34:17.345Z,1010.94
2018-07-02T01:35:28.249Z,1010.98
2018-07-02T01:36:37.740Z,1010.96
2018-07-02T01:37:46.950Z,1011
2018-07-02T01:38:56.441Z,1011.03
2018-07-02T01:40:05.918Z,1011
2018-07-02T01:41:15.155Z,1010.98
2018-07-02T01:42:25.054Z,1011.01
2018-07-02T01:43:33.969Z,1011.02
2018-07-02T01:44:43.477Z,1010.92
2018-07-02T01:45:52.974Z,1010.93
2018-07-02T01:47:02.165Z,1010.93
2018-07-02T01:48:11.616Z,1010.95
2018-07-02T01:49:22.082Z,1010.95
2018-07-02T01:50:31.589Z,1010.95
2018-07-02T01:51:41.123Z,1010.96
2018-07-02T01:52:50.921Z,1011
2018-07-02T01:54:00.872Z,1011
2018-07-02T01:55:11.552Z,1011.01
2018-07-02T01:56:21.028Z,1011.03
2018-07-02T01:57:30.797Z,1011.04
2018-07-02T01:58:40.803Z,1011.07
2018-07-02T01:59:49.987Z,1011.13
2018-07-02T02:01:00.049Z,1011.12
2018-07-02T02:02:11.509Z,1011.12
2018-07-02T02:03:21.853Z,1011.13
2018-07-02T02:04:31.848Z,1011.13
2018-07-02T02:05:41.325Z,1011.18
2018-07-02T02:06:51.090Z,1011.16
2018-07-02T02:08:00.566Z,1011.17
2018-07-02T02:09:10.637Z,1011.18
2018-07-02T02:10:19.817Z,1011.18
2018-07-02T02:11:29.340Z,1011.15
2018-07-02T02:12:40.856Z,1011.18
2018-07-02T02:13:51.614Z,1011.15
2018-07-02T02:15:01.355Z,1011.18
2018-07-02T02:16:10.874Z,1011.16
2018-07-02T02:17:20.354Z,1011.13
2018-07-02T02:18:30.083Z,1011.1
2018-07-02T02:19:39.597Z,1011.11
2018-07-02T02:20:49.575Z,1011.08
2018-07-02T02:22:00.644Z,1011.09
2018-07-02T02:23:12.815Z,1011.07
2018-07-02T02:24:23.214Z,1011.11
2018-07-02T02:25:32.403Z,1011.1
2018-07-02T02:26:41.608Z,1011.09
2018-07-02T02:27:50.782Z,1011.12
2018-07-02T02:29:00.536Z,1011.12
2018-07-02T02:30:09.478Z,1011.09
2018-07-02T02:31:19.521Z,1011.11
2018-07-02T02:32:29.918Z,1011.13
2018-07-02T02:33:40.308Z,1011.12
2018-07-02T02:34:49.766Z,1011.1
2018-07-02T02:35:58.670Z,1011.11
2018-07-02T02:37:07.861Z,1011.09
2018-07-02T02:38:17.616Z,1011.11
2018-07-02T02:39:27.881Z,1011.06
2018-07-02T02:40:37.613Z,1011.09
2018-07-02T02:41:48.245Z,1011.11
2018-07-02T02:42:58.863Z,1011.08
2018-07-02T02:44:09.038Z,1011.11
2018-07-02T02:45:18.765Z,1011.09
2018-07-02T02:46:28.497Z,1011.08
2018-07-02T02:47:37.966Z,1011.08
2018-07-02T02:48:47.705Z,1011.05
2018-07-02T02:49:57.719Z,1011.04
2018-07-02T02:51:08.717Z,1011.03
2018-07-02T02:52:17.921Z,1011.05
2018-07-02T02:53:27.612Z,1011.04
2018-07-02T02:54:37.094Z,1011.04
2018-07-02T02:55:46.927Z,1011.05
2018-07-02T02:56:56.407Z,1011.04
2018-07-02T02:58:05.879Z,1011
2018-07-02T02:59:15.364Z,1010.98
2018-07-02T03:00:25.575Z,1010.98
2018-07-02T03:01:37.212Z,1010.91
2018-07-02T03:02:46.132Z,1010.94
2018-07-02T03:03:55.880Z,1010.9
2018-07-02T03:05:05.777Z,1010.93
2018-07-02T03:06:15.222Z,1010.92
2018-07-02T03:07:24.683Z,1010.91
2018-07-02T03:08:33.881Z,1010.97
2018-07-02T03:09:43.381Z,1010.96
2018-07-02T03:10:54.024Z,1010.95
2018-07-02T03:12:03.255Z,1010.92
2018-07-02T03:13:14.905Z,1010.92
2018-07-02T03:14:25.995Z,1010.88
2018-07-02T03:15:35.162Z,1010.85
2018-07-02T03:16:44.913Z,1010.9
2018-07-02T03:17:54.978Z,1010.89
2018-07-02T03:19:04.727Z,1010.92
2018-07-02T03:20:14.524Z,1010.93
2018-07-02T03:21:24.187Z,1010.92
2018-07-02T03:22:34.545Z,1010.95
2018-07-02T03:23:44.708Z,1010.91
2018-07-02T03:24:54.923Z,1010.88
2018-07-02T03:26:04.683Z,1010.93
2018-07-02T03:27:14.714Z,1010.94
2018-07-02T03:28:24.162Z,1010.92
2018-07-02T03:29:33.353Z,1010.96
2018-07-02T03:30:42.842Z,1010.99
2018-07-02T03:31:53.130Z,1011.01
2018-07-02T03:33:03.146Z,1011.04
2018-07-02T03:34:13.652Z,1011.09
2018-07-02T03:35:22.578Z,1011.09
2018-07-02T03:36:31.760Z,1011.11
2018-07-02T03:37:41.212Z,1011.12
2018-07-02T03:38:50.407Z,1011.11
2018-07-02T03:39:59.848Z,1011.11
2018-07-02T03:41:09.011Z,1011.1
2018-07-02T03:42:19.900Z,1011.12
2018-07-02T03:43:29.372Z,1011.08
2018-07-02T03:44:38.552Z,1011.11
2018-07-02T03:45:48.054Z,1011.13
2018-07-02T03:46:57.558Z,1011.17
2018-07-02T03:48:07.034Z,1011.19
2018-07-02T03:49:17.692Z,1011.25
2018-07-02T03:50:28.855Z,1011.3
2018-07-02T03:51:37.761Z,1011.36
2018-07-02T03:52:46.947Z,1011.34
2018-07-02T03:53:56.739Z,1011.34
2018-07-02T03:55:06.249Z,1011.29
2018-07-02T03:56:15.158Z,1011.3
2018-07-02T03:57:24.939Z,1011.3
2018-07-02T03:58:35.395Z,1011.23
2018-07-02T03:59:46.453Z,1011.28
2018-07-02T04:00:55.907Z,1011.28
2018-07-02T04:02:05.133Z,1011.21
2018-07-02T04:03:14.878Z,1011.23
2018-07-02T04:04:24.355Z,1011.2
2018-07-02T04:05:32.992Z,1011.26
2018-07-02T04:06:43.045Z,1011.25
2018-07-02T04:07:54.008Z,1011.24
2018-07-02T04:09:02.914Z,1011.23
2018-07-02T04:10:12.108Z,1011.21
2018-07-02T04:11:21.055Z,1011.24
2018-07-02T04:12:29.963Z,1011.27
2018-07-02T04:13:39.727Z,1011.24
2018-07-02T04:14:48.944Z,1011.2
2018-07-02T04:15:59.582Z,1011.21
2018-07-02T04:17:11.130Z,1011.26
2018-07-02T04:18:20.614Z,1011.3
2018-07-02T04:19:31.031Z,1011.29
2018-07-02T04:20:39.942Z,1011.27
2018-07-02T04:21:50.053Z,1011.3
2018-07-02T04:22:59.548Z,1011.3
2018-07-02T04:24:09.026Z,1011.33
2018-07-02T04:25:18.539Z,1011.3
2018-07-02T04:26:27.838Z,1011.27
2018-07-02T04:27:37.299Z,1011.26
2018-07-02T04:28:46.779Z,1011.26
2018-07-02T04:29:56.007Z,1011.28
2018-07-02T04:31:05.922Z,1011.29
2018-07-02T04:32:15.860Z,1011.34
2018-07-02T04:33:25.061Z,1011.31
2018-07-02T04:34:34.545Z,1011.36
2018-07-02T04:35:44.047Z,1011.37
2018-07-02T04:36:53.246Z,1011.39
2018-07-02T04:38:03.305Z,1011.39
2018-07-02T04:39:12.800Z,1011.4
2018-07-02T04:40:24.319Z,1011.35
2018-07-02T04:41:35.241Z,1011.38
2018-07-02T04:42:45.668Z,1011.32
2018-07-02T04:43:56.002Z,1011.36
2018-07-02T04:45:07.688Z,1011.33
2018-07-02T04:46:19.461Z,1011.35
2018-07-02T04:47:33.131Z,1011.35
2018-07-02T04:48:39.600Z,1011.38
2018-07-02T04:49:50.416Z,1011.37
2018-07-02T04:50:59.045Z,1011.35
2018-07-02T04:52:09.836Z,1011.36
2018-07-02T04:53:20.765Z,1011.37
2018-07-02T04:54:30.774Z,1011.38
2018-07-02T04:55:40.893Z,1011.34
2018-07-02T04:56:50.932Z,1011.39
2018-07-02T04:58:02.694Z,1011.34
2018-07-02T04:59:12.595Z,1011.4
2018-07-02T05:00:22.126Z,1011.37
2018-07-02T05:01:33.424Z,1011.37
2018-07-02T05:02:42.568Z,1011.34
2018-07-02T05:03:51.736Z,1011.3
2018-07-02T05:05:01.153Z,1011.33
2018-07-02T05:06:10.056Z,1011.32
2018-07-02T05:07:19.481Z,1011.35
2018-07-02T05:08:28.392Z,1011.36
2018-07-02T05:09:37.302Z,1011.33
2018-07-02T05:10:46.194Z,1011.35
2018-07-02T05:11:55.855Z,1011.32
2018-07-02T05:13:05.315Z,1011.35
2018-07-02T05:14:14.989Z,1011.33
2018-07-02T05:15:24.655Z,1011.3
2018-07-02T05:16:34.303Z,1011.28
2018-07-02T05:17:43.469Z,1011.27
2018-07-02T05:18:53.196Z,1011.24
2018-07-02T05:20:02.895Z,1011.25
2018-07-02T05:21:12.572Z,1011.21
2018-07-02T05:22:22.238Z,1011.17
2018-07-02T05:23:31.648Z,1011.22
2018-07-02T05:24:41.055Z,1011.19
2018-07-02T05:25:50.461Z,1011.18
2018-07-02T05:26:59.879Z,1011.17
2018-07-02T05:28:09.282Z,1011.19
2018-07-02T05:29:18.684Z,1011.16
2018-07-02T05:30:28.351Z,1011.16
2018-07-02T05:31:38.026Z,1011.15
2018-07-02T05:32:47.454Z,1011.1
2018-07-02T05:33:56.602Z,1011.12
2018-07-02T05:35:05.768Z,1011.15
2018-07-02T05:36:14.915Z,1011.13
2018-07-02T05:37:24.609Z,1011.11
2018-07-02T05:38:33.766Z,1011.14
2018-07-02T05:39:42.924Z,1011.07
2018-07-02T05:40:52.072Z,1011.07
2018-07-02T05:42:01.482Z,1011.07
2018-07-02T05:43:10.886Z,1011.08
2018-07-02T05:44:20.294Z,1011.12
2018-07-02T05:45:29.964Z,1011.09
2018-07-02T05:46:39.111Z,1011.1
2018-07-02T05:47:48.528Z,1011.08
2018-07-02T05:48:57.958Z,1011.11
2018-07-02T05:50:07.104Z,1011.08
2018-07-02T05:51:15.984Z,1011.12
2018-07-02T05:52:25.648Z,1011.09
2018-07-02T05:53:35.573Z,1011.05
2018-07-02T05:54:44.717Z,1011.03
2018-07-02T05:55:54.254Z,1011.08
2018-07-02T05:57:03.411Z,1011.11
2018-07-02T05:58:12.860Z,1011.11
2018-07-02T05:59:22.015Z,1011.11
2018-07-02T06:00:31.521Z,1011.15
2018-07-02T06:01:41.940Z,1011.19
2018-07-02T06:02:51.609Z,1011.21
2018-07-02T06:04:01.699Z,1011.17
2018-07-02T06:05:11.296Z,1011.16
2018-07-02T06:06:20.456Z,1011.07
2018-07-02T06:07:29.876Z,1011.14
2018-07-02T06:08:39.038Z,1011.08
2018-07-02T06:09:48.227Z,1011.11
2018-07-02T06:10:58.141Z,1011.09
2018-07-02T06:12:07.544Z,1011.19
2018-07-02T06:13:17.719Z,1011.19
2018-07-02T06:14:27.210Z,1011.21
2018-07-02T06:15:36.632Z,1011.26
2018-07-02T06:16:46.298Z,1011.28
2018-07-02T06:17:56.226Z,1011.26
2018-07-02T06:19:05.675Z,1011.23
2018-07-02T06:20:14.568Z,1011.25
2018-07-02T06:21:24.256Z,1011.19
2018-07-02T06:22:33.918Z,1011.18
2018-07-02T06:23:43.305Z,1011.15
2018-07-02T06:24:52.778Z,1011.19
2018-07-02T06:26:02.263Z,1011.23
2018-07-02T06:27:11.443Z,1011.3
2018-07-02T06:28:20.595Z,1011.28
2018-07-02T06:29:30.015Z,1011.32
2018-07-02T06:30:39.420Z,1011.31
2018-07-02T06:31:49.353Z,1011.24
2018-07-02T06:32:58.250Z,1011.23
2018-07-02T06:34:07.664Z,1011.24
2018-07-02T06:35:17.080Z,1011.27
2018-07-02T06:36:26.483Z,1011.27
2018-07-02T06:37:35.394Z,1011.28
2018-07-02T06:38:44.656Z,1011.29
2018-07-02T06:39:54.077Z,1011.31
2018-07-02T06:41:03.734Z,1011.32
2018-07-02T06:42:13.145Z,1011.31
2018-07-02T06:43:23.082Z,1011.34
2018-07-02T06:44:32.494Z,1011.32
2018-07-02T06:45:41.911Z,1011.36
2018-07-02T06:46:51.321Z,1011.34
2018-07-02T06:48:01.000Z,1011.36
2018-07-02T06:49:10.404Z,1011.36
2018-07-02T06:50:20.097Z,1011.34
2018-07-02T06:51:29.273Z,1011.4
2018-07-02T06:52:38.942Z,1011.34
2018-07-02T06:53:48.100Z,1011.36
2018-07-02T06:54:56.996Z,1011.34
2018-07-02T06:56:06.396Z,1011.34
2018-07-02T06:57:16.055Z,1011.35
2018-07-02T06:58:25.210Z,1011.42
2018-07-02T06:59:34.702Z,1011.39
2018-07-02T07:00:44.366Z,1011.45
2018-07-02T07:01:53.779Z,1011.45
2018-07-02T07:03:03.450Z,1011.42
2018-07-02T07:04:12.594Z,1011.41
2018-07-02T07:05:21.486Z,1011.44
2018-07-02T07:06:30.883Z,1011.4
2018-07-02T07:07:40.804Z,1011.47
2018-07-02T07:08:50.469Z,1011.42
2018-07-02T07:10:00.135Z,1011.43
2018-07-02T07:11:09.823Z,1011.43
2018-07-02T07:12:19.231Z,1011.5
2018-07-02T07:13:28.375Z,1011.5
2018-07-02T07:14:37.593Z,1011.49
2018-07-02T07:15:47.256Z,1011.5
2018-07-02T07:16:56.665Z,1011.53
2018-07-02T07:18:06.573Z,1011.56
2018-07-02T07:19:15.717Z,1011.56
2018-07-02T07:20:25.637Z,1011.48
2018-07-02T07:21:35.056Z,1011.46
2018-07-02T07:22:44.997Z,1011.48
2018-07-02T07:23:54.167Z,1011.46
2018-07-02T07:25:04.085Z,1011.49
2018-07-02T07:26:13.765Z,1011.45
2018-07-02T07:27:23.434Z,1011.51
2018-07-02T07:28:33.492Z,1011.49
2018-07-02T07:29:42.651Z,1011.52
2018-07-02T07:30:52.305Z,1011.53
2018-07-02T07:32:01.491Z,1011.54
2018-07-02T07:33:10.901Z,1011.51
2018-07-02T07:34:20.553Z,1011.5
2018-07-02T07:35:29.995Z,1011.49
2018-07-02T07:36:39.394Z,1011.48
2018-07-02T07:37:48.281Z,1011.5
2018-07-02T07:38:57.747Z,1011.47
2018-07-02T07:40:07.198Z,1011.46
2018-07-02T07:41:16.853Z,1011.45
2018-07-02T07:42:26.521Z,1011.48
2018-07-02T07:43:35.932Z,1011.5
2018-07-02T07:44:45.366Z,1011.49
2018-07-02T07:45:54.962Z,1011.49
2018-07-02T07:47:04.366Z,1011.52
2018-07-02T07:48:14.051Z,1011.55
2018-07-02T07:49:23.459Z,1011.55
2018-07-02T07:50:33.124Z,1011.49
2018-07-02T07:51:42.787Z,1011.47
2018-07-02T07:52:52.703Z,1011.47
2018-07-02T07:54:02.153Z,1011.49
2018-07-02T07:55:11.309Z,1011.41
2018-07-02T07:56:20.742Z,1011.47
2018-07-02T07:57:30.137Z,1011.46
2018-07-02T07:58:40.060Z,1011.46
2018-07-02T07:59:49.463Z,1011.47
2018-07-02T08:00:59.140Z,1011.48
2018-07-02T08:02:08.995Z,1011.54
2018-07-02T08:03:18.661Z,1011.47
2018-07-02T08:04:27.830Z,1011.56
2018-07-02T08:05:37.495Z,1011.5
2018-07-02T08:06:47.172Z,1011.49
2018-07-02T08:07:56.093Z,1011.45
2018-07-02T08:09:05.499Z,1011.51
2018-07-02T08:10:15.171Z,1011.5
2018-07-02T08:11:25.149Z,1011.52
2018-07-02T08:12:35.106Z,1011.5
2018-07-02T08:13:44.273Z,1011.45
2018-07-02T08:14:53.944Z,1011.52
2018-07-02T08:16:03.880Z,1011.49
2018-07-02T08:17:13.808Z,1011.49
2018-07-02T08:18:22.714Z,1011.43
2018-07-02T08:19:32.126Z,1011.42
2018-07-02T08:20:42.041Z,1011.4
2018-07-02T08:21:50.950Z,1011.39
2018-07-02T08:23:00.618Z,1011.42
2018-07-02T08:24:09.534Z,1011.5
2018-07-02T08:25:18.690Z,1011.48
2018-07-02T08:26:28.201Z,1011.55
2018-07-02T08:27:37.608Z,1011.52
2018-07-02T08:28:47.304Z,1011.5
2018-07-02T08:29:56.470Z,1011.53
2018-07-02T08:31:05.631Z,1011.5
2018-07-02T08:32:14.786Z,1011.45
2018-07-02T08:33:24.179Z,1011.46
2018-07-02T08:34:33.325Z,1011.48
2018-07-02T08:35:42.225Z,1011.48
2018-07-02T08:36:52.172Z,1011.5
2018-07-02T08:38:01.916Z,1011.52
2018-07-02T08:39:10.813Z,1011.45
2018-07-02T08:40:20.228Z,1011.49
2018-07-02T08:41:29.704Z,1011.5
2018-07-02T08:42:39.826Z,1011.46
2018-07-02T08:43:48.983Z,1011.47
2018-07-02T08:44:58.914Z,1011.44
2018-07-02T08:46:08.627Z,1011.4
2018-07-02T08:47:18.051Z,1011.39
2018-07-02T08:48:27.709Z,1011.41
2018-07-02T08:49:36.884Z,1011.31
2018-07-02T08:50:46.054Z,1011.35
2018-07-02T08:51:55.206Z,1011.34
2018-07-02T08:53:04.620Z,1011.36
2018-07-02T08:54:14.312Z,1011.37
2018-07-02T08:55:24.240Z,1011.36
2018-07-02T08:56:33.651Z,1011.33
2018-07-02T08:57:42.815Z,1011.32
2018-07-02T08:58:51.712Z,1011.32
2018-07-02T09:00:01.167Z,1011.34
2018-07-02T09:01:10.836Z,1011.25
2018-07-02T09:02:20.514Z,1011.29
2018-07-02T09:03:29.930Z,1011.25
2018-07-02T09:04:39.598Z,1011.26
2018-07-02T09:05:49.022Z,1011.32
2018-07-02T09:06:58.229Z,1011.32
2018-07-02T09:08:07.710Z,1011.35
2018-07-02T09:09:17.126Z,1011.33
2018-07-02T09:10:26.815Z,1011.29
2018-07-02T09:11:36.470Z,1011.3
2018-07-02T09:12:46.156Z,1011.33
2018-07-02T09:13:55.566Z,1011.33
2018-07-02T09:15:05.241Z,1011.35
2018-07-02T09:16:15.187Z,1011.39
2018-07-02T09:17:24.874Z,1011.39
2018-07-02T09:18:34.588Z,1011.35
2018-07-02T09:19:43.997Z,1011.4
2018-07-02T09:20:53.474Z,1011.36
2018-07-02T09:22:02.369Z,1011.37
2018-07-02T09:23:11.537Z,1011.32
2018-07-02T09:24:20.686Z,1011.36
2018-07-02T09:25:29.577Z,1011.38
2018-07-02T09:26:38.473Z,1011.36
2018-07-02T09:27:47.893Z,1011.42
2018-07-02T09:28:57.359Z,1011.43
2018-07-02T09:30:06.798Z,1011.42
2018-07-02T09:31:16.464Z,1011.4
2018-07-02T09:32:26.180Z,1011.44
2018-07-02T09:33:36.095Z,1011.47
2018-07-02T09:34:44.987Z,1011.42
2018-07-02T09:35:54.397Z,1011.41
2018-07-02T09:37:04.061Z,1011.44
2018-07-02T09:38:13.482Z,1011.43
2018-07-02T09:39:23.183Z,1011.4
2018-07-02T09:40:33.120Z,1011.35
2018-07-02T09:41:42.514Z,1011.27
2018-07-02T09:42:52.193Z,1011.38
2018-07-02T09:44:01.597Z,1011.42
2018-07-02T09:45:10.748Z,1011.41
2018-07-02T09:46:20.749Z,1011.37
2018-07-02T09:47:30.169Z,1011.33
2018-07-02T09:48:39.859Z,1011.37
2018-07-02T09:49:49.518Z,1011.36
2018-07-02T09:50:58.888Z,1011.34
2018-07-02T09:52:08.552Z,1011.31
2018-07-02T09:53:17.964Z,1011.34
2018-07-02T09:54:27.775Z,1011.34
2018-07-02T09:55:36.924Z,1011.29
2018-07-02T09:56:46.325Z,1011.26
2018-07-02T09:57:55.473Z,1011.27
2018-07-02T09:59:04.891Z,1011.28
2018-07-02T10:00:14.304Z,1011.31
2018-07-02T10:01:23.983Z,1011.34
2018-07-02T10:02:33.399Z,1011.34
2018-07-02T10:03:42.289Z,1011.36
2018-07-02T10:04:51.466Z,1011.44
2018-07-02T10:06:00.926Z,1011.35
2018-07-02T10:07:10.617Z,1011.38
2018-07-02T10:08:19.511Z,1011.39
2018-07-02T10:09:28.960Z,1011.38
2018-07-02T10:10:38.399Z,1011.38
2018-07-02T10:11:48.088Z,1011.35
2018-07-02T10:12:57.935Z,1011.29
2018-07-02T10:14:07.388Z,1011.28
2018-07-02T10:15:16.813Z,1011.32
2018-07-02T10:16:26.219Z,1011.35
2018-07-02T10:17:36.134Z,1011.33
2018-07-02T10:18:45.029Z,1011.25
2018-07-02T10:19:54.682Z,1011.23
2018-07-02T10:21:04.091Z,1011.27
2018-07-02T10:22:13.503Z,1011.25
2018-07-02T10:23:22.144Z,1011.26
2018-07-02T10:24:31.393Z,1011.24
2018-07-02T10:25:41.064Z,1011.27
2018-07-02T10:26:50.533Z,1011.26
2018-07-02T10:27:59.703Z,1011.27
2018-07-02T10:29:08.905Z,1011.27
2018-07-02T10:30:19.225Z,1011.18
2018-07-02T10:31:28.764Z,1011.16
2018-07-02T10:32:38.456Z,1011.14
2018-07-02T10:33:47.876Z,1011.14
2018-07-02T10:34:57.799Z,1011.16
2018-07-02T10:36:07.469Z,1011.2
2018-07-02T10:37:17.130Z,1011.13
2018-07-02T10:38:26.314Z,1011.14
2018-07-02T10:39:35.473Z,1011.12
2018-07-02T10:40:45.161Z,1011.12
2018-07-02T10:41:54.829Z,1011.06
2018-07-02T10:43:03.997Z,1011.13
2018-07-02T10:44:13.165Z,1011.1
2018-07-02T10:45:22.589Z,1011.11
2018-07-02T10:46:31.989Z,1011.06
2018-07-02T10:47:40.899Z,1011.08
2018-07-02T10:48:50.555Z,1011.08
2018-07-02T10:49:59.966Z,1011.05
2018-07-02T10:51:09.370Z,1011.06
2018-07-02T10:52:19.028Z,1011.04
2018-07-02T10:53:28.166Z,1011.03
2018-07-02T10:54:37.593Z,1011.03
2018-07-02T10:55:47.530Z,1011.01
2018-07-02T10:56:57.037Z,1011.06
2018-07-02T10:58:06.447Z,1011.14
2018-07-02T10:59:16.104Z,1011.15
2018-07-02T11:00:25.272Z,1011.09
2018-07-02T11:01:34.953Z,1011.04
2018-07-02T11:02:44.368Z,1011.08
2018-07-02T11:03:53.552Z,1011.04
2018-07-02T11:05:02.453Z,1011.07
2018-07-02T11:06:11.360Z,1011.12
2018-07-02T11:07:20.578Z,1011.09
2018-07-02T11:08:30.255Z,1011.1
2018-07-02T11:09:40.200Z,1011.06
2018-07-02T11:10:49.870Z,1011.04
2018-07-02T11:11:59.273Z,1011.05
2018-07-02T11:13:08.695Z,1011.03
2018-07-02T11:14:18.381Z,1010.98
2018-07-02T11:15:28.043Z,1011.01
2018-07-02T11:16:37.187Z,1011.05
2018-07-02T11:17:46.357Z,1011.06
2018-07-02T11:18:56.019Z,1011.07
2018-07-02T11:20:05.438Z,1011.14
2018-07-02T11:21:14.340Z,1011.14
2018-07-02T11:22:23.488Z,1011.06
2018-07-02T11:23:32.639Z,1011.03
2018-07-02T11:24:42.731Z,1011.02
2018-07-02T11:25:52.151Z,1010.99
2018-07-02T11:27:01.326Z,1010.92
2018-07-02T11:28:11.002Z,1010.93
2018-07-02T11:29:20.164Z,1010.87
2018-07-02T11:30:29.577Z,1010.93
2018-07-02T11:31:38.731Z,1010.91
2018-07-02T11:32:48.133Z,1010.93
2018-07-02T11:33:57.558Z,1010.94
2018-07-02T11:35:06.767Z,1010.98
2018-07-02T11:36:15.667Z,1010.9
2018-07-02T11:37:25.115Z,1010.89
2018-07-02T11:38:34.649Z,1010.91
2018-07-02T11:39:43.573Z,1010.84
2018-07-02T11:40:52.707Z,1010.85
2018-07-02T11:42:02.377Z,1010.84
2018-07-02T11:43:11.785Z,1010.85
2018-07-02T11:44:21.220Z,1010.77
2018-07-02T11:45:30.876Z,1010.75
2018-07-02T11:46:40.282Z,1010.77
2018-07-02T11:47:49.438Z,1010.78
2018-07-02T11:48:58.329Z,1010.74
2018-07-02T11:50:07.477Z,1010.75
2018-07-02T11:51:16.901Z,1010.73
2018-07-02T11:52:25.797Z,1010.77
2018-07-02T11:53:35.232Z,1010.79
2018-07-02T11:54:44.407Z,1010.79
2018-07-02T11:55:53.555Z,1010.78
2018-07-02T11:57:03.229Z,1010.83
2018-07-02T11:58:12.641Z,1010.84
2018-07-02T11:59:22.057Z,1010.84
2018-07-02T12:00:31.205Z,1010.79
2018-07-02T12:01:40.376Z,1010.81
2018-07-02T12:02:49.552Z,1010.75
2018-07-02T12:03:58.447Z,1010.73
2018-07-02T12:05:07.863Z,1010.79
2018-07-02T12:06:17.029Z,1010.71
2018-07-02T12:07:26.472Z,1010.74
2018-07-02T12:08:36.386Z,1010.79
2018-07-02T12:09:45.790Z,1010.81
2018-07-02T12:10:55.307Z,1010.82
2018-07-02T12:12:05.232Z,1010.81
2018-07-02T12:13:14.480Z,1010.8
2018-07-02T12:14:24.316Z,1010.79
2018-07-02T12:15:33.532Z,1010.76
2018-07-02T12:16:42.683Z,1010.81
2018-07-02T12:17:51.828Z,1010.82
2018-07-02T12:19:01.758Z,1010.85
2018-07-02T12:20:11.176Z,1010.82
2018-07-02T12:21:20.831Z,1010.82
2018-07-02T12:22:30.744Z,1010.84
2018-07-02T12:23:39.909Z,1010.77
2018-07-02T12:24:49.326Z,1010.79
2018-07-02T12:25:58.223Z,1010.79
2018-07-02T12:27:07.674Z,1010.76
2018-07-02T12:28:17.329Z,1010.72
2018-07-02T12:29:27.015Z,1010.7
2018-07-02T12:30:36.176Z,1010.73
2018-07-02T12:31:45.320Z,1010.76
2018-07-02T12:32:54.474Z,1010.75
2018-07-02T12:34:03.874Z,1010.74
2018-07-02T12:35:13.086Z,1010.75
2018-07-02T12:36:22.258Z,1010.73
2018-07-02T12:37:31.934Z,1010.75
2018-07-02T12:38:41.345Z,1010.72
2018-07-02T12:39:51.016Z,1010.7
2018-07-02T12:41:00.205Z,1010.66
2018-07-02T12:42:09.099Z,1010.69
2018-07-02T12:43:18.504Z,1010.68
2018-07-02T12:44:27.941Z,1010.62
2018-07-02T12:45:37.345Z,1010.63
2018-07-02T12:46:46.536Z,1010.59
2018-07-02T12:47:56.123Z,1010.65
2018-07-02T12:49:05.268Z,1010.67
2018-07-02T12:50:14.161Z,1010.67
2018-07-02T12:51:23.559Z,1010.67
2018-07-02T12:52:32.463Z,1010.65
2018-07-02T12:53:42.141Z,1010.7
2018-07-02T12:54:51.560Z,1010.65
2018-07-02T12:56:00.448Z,1010.63
2018-07-02T12:57:10.114Z,1010.64
2018-07-02T12:58:19.811Z,1010.62
2018-07-02T12:59:29.223Z,1010.62
2018-07-02T13:00:39.168Z,1010.63
2018-07-02T13:01:48.844Z,1010.63
2018-07-02T13:02:57.743Z,1010.68
2018-07-02T13:04:06.897Z,1010.67
2018-07-02T13:05:16.121Z,1010.69
2018-07-02T13:06:25.807Z,1010.68
2018-07-02T13:07:35.217Z,1010.71
2018-07-02T13:08:44.885Z,1010.63
2018-07-02T13:09:54.290Z,1010.62
2018-07-02T13:11:03.440Z,1010.63
2018-07-02T13:12:12.880Z,1010.62
2018-07-02T13:13:22.019Z,1010.63
2018-07-02T13:14:31.872Z,1010.57
2018-07-02T13:15:41.797Z,1010.59
2018-07-02T13:16:51.218Z,1010.6
2018-07-02T13:18:00.632Z,1010.59
2018-07-02T13:19:10.319Z,1010.58
2018-07-02T13:20:19.471Z,1010.57
2018-07-02T13:21:28.620Z,1010.55
2018-07-02T13:22:38.277Z,1010.53
2018-07-02T13:23:47.683Z,1010.51
2018-07-02T13:24:57.091Z,1010.46
2018-07-02T13:26:06.740Z,1010.49
2018-07-02T13:27:16.429Z,1010.46
2018-07-02T13:28:26.104Z,1010.45
2018-07-02T13:29:35.514Z,1010.39
2018-07-02T13:30:44.680Z,1010.43
2018-07-02T13:31:54.081Z,1010.47
2018-07-02T13:33:03.486Z,1010.48
2018-07-02T13:34:13.150Z,1010.44
2018-07-02T13:35:22.832Z,1010.45
2018-07-02T13:36:32.323Z,1010.45
2018-07-02T13:37:42.751Z,1010.43
2018-07-02T13:38:52.346Z,1010.46
2018-07-02T13:40:02.273Z,1010.42
2018-07-02T13:41:11.695Z,1010.44
2018-07-02T13:42:21.358Z,1010.43
2018-07-02T13:43:30.786Z,1010.4
2018-07-02T13:44:40.736Z,1010.48
2018-07-02T13:45:50.154Z,1010.34
2018-07-02T13:46:59.557Z,1010.37
2018-07-02T13:48:09.006Z,1010.4
2018-07-02T13:49:18.720Z,1010.37
2018-07-02T13:50:28.426Z,1010.34
2018-07-02T13:51:38.091Z,1010.25
2018-07-02T13:52:48.009Z,1010.28
2018-07-02T13:53:57.430Z,1010.28
2018-07-02T13:55:07.092Z,1010.32
2018-07-02T13:56:17.223Z,1010.3
2018-07-02T13:57:26.646Z,1010.31
2018-07-02T13:58:36.067Z,1010.33
2018-07-02T13:59:45.738Z,1010.29
2018-07-02T14:00:55.227Z,1010.27
2018-07-02T14:02:04.134Z,1010.32
2018-07-02T14:03:14.078Z,1010.25
2018-07-02T14:04:23.736Z,1010.21